Time;durP1;ratioP1;P1;durP2;ratioP2;P2;SDS_P1;SDS_P2;PMS_P1;PMS_P2;Temp;Humidity;BMP_temperature;BMP_pressure;BME280_temperature;BME280_humidity;BME280_pressure;Samples;Min_cycle;Max_cycle;Signal;HPM_P1;HPM_P2
2023/01/07 00:01:36;;;;;;;;;;;;;;;-4.56;85.42;94904.00;6294497;28;19931;-68
2023/01/07 00:04:39;;;;;;;;;;;;;;;-4.37;85.58;94918.69;6294506;28;19964;-68
2023/01/07 00:07:43;;;;;;;;;;;;;;;-4.06;85.76;94920.91;6295522;28;19924;-68
2023/01/07 00:10:49;;;;;;;;;;;;;;;-3.99;85.60;94916.34;6295463;28;19924;-68
2023/01/07 00:13:55;;;;;;;;;;;;;;;-3.77;85.14;94919.75;6295502;28;19924;-68
2023/01/07 00:16:59;;;;;;;;;;;;;;;-3.52;84.11;94934.19;6295363;28;19924;-69
2023/01/07 00:20:03;;;;;;;;;;;;;;;-3.63;83.63;94932.88;6294310;28;19931;-68
2023/01/07 00:23:04;;;;;;;;;;;;;;;-3.66;83.24;94938.13;6294318;28;19924;-69
2023/01/07 00:26:08;;;;;;;;;;;;;;;-3.72;83.41;94938.38;6294549;28;19924;-68
2023/01/07 00:29:15;;;;;;;;;;;;;;;-3.89;83.10;94933.09;6294173;28;19930;-69
2023/01/07 00:32:17;;;;;;;;;;;;;;;-3.58;83.44;94934.44;6298909;28;19932;-68
2023/01/07 00:35:23;;;;;;;;;;;;;;;-3.91;82.63;94929.75;6299459;28;20405;-68
2023/01/07 00:38:24;;;;;;;;;;;;;;;-3.78;82.95;94932.66;6298549;28;19925;-68
2023/01/07 00:41:25;;;;;;;;;;;;;;;-3.73;82.74;94934.16;6298402;28;19982;-69
2023/01/07 00:44:26;;;;;;;;;;;;;;;-3.70;81.87;94936.59;6298285;28;20389;-69
2023/01/07 00:47:32;;;;;;;;;;;;;;;-3.63;80.89;94943.16;6298312;28;19921;-68
2023/01/07 00:50:36;;;;;;;;;;;;;;;-3.82;79.57;94931.97;6298884;28;19924;-67
2023/01/07 00:53:45;;;;;;;;;;;;;;;-3.93;80.49;94927.25;6299000;28;19924;-68
2023/01/07 00:56:46;;;;;;;;;;;;;;;-4.02;80.76;94929.31;6297695;28;19932;-68
2023/01/07 00:59:50;;;;;;;;;;;;;;;-3.99;80.30;94929.19;6298918;28;19931;-68
2023/01/07 01:02:51;;;;;;;;;;;;;;;-4.10;79.87;94930.47;6297982;28;20393;-68
2023/01/07 01:05:59;;;;;;;;;;;;;;;-4.31;79.75;94939.00;6298643;28;19924;-67
2023/01/07 01:09:03;;;;;;;;;;;;;;;-4.49;80.07;94934.56;6298617;28;19924;-67
2023/01/07 01:12:06;;;;;;;;;;;;;;;-4.39;80.13;94941.00;6298569;28;19925;-68
2023/01/07 01:15:13;;;;;;;;;;;;;;;-4.43;79.46;94940.28;6297504;28;19929;-67
2023/01/07 01:18:16;;;;;;;;;;;;;;;-4.29;79.64;94942.34;6298544;28;19924;-68
2023/01/07 01:21:18;;;;;;;;;;;;;;;-4.39;78.78;94953.84;6297862;28;19925;-67
2023/01/07 01:24:25;;;;;;;;;;;;;;;-4.44;78.55;94948.91;6298532;28;19935;-68
2023/01/07 01:27:28;;;;;;;;;;;;;;;-4.36;76.63;94961.44;6297269;28;19924;-67
2023/01/07 01:30:32;;;;;;;;;;;;;;;-4.37;75.19;94970.03;6279757;28;20393;-68
2023/01/07 01:33:35;;;;;;;;;;;;;;;-4.63;75.12;94964.13;6296769;28;20306;-68
2023/01/07 01:36:39;;;;;;;;;;;;;;;-4.72;74.82;94974.72;6297804;28;20453;-67
2023/01/07 01:39:42;;;;;;;;;;;;;;;-4.81;74.96;94975.03;6297149;28;20406;-68
2023/01/07 01:42:43;;;;;;;;;;;;;;;-4.99;74.77;94982.47;6295684;28;20409;-68
2023/01/07 01:45:44;;;;;;;;;;;;;;;-4.89;74.46;94987.31;6296776;28;19924;-67
2023/01/07 01:48:49;;;;;;;;;;;;;;;-4.90;74.34;94995.88;6296731;28;19920;-68
2023/01/07 01:51:56;;;;;;;;;;;;;;;-5.14;73.83;94988.16;6296415;28;20508;-68
2023/01/07 01:55:01;;;;;;;;;;;;;;;-5.11;73.55;94998.31;6296580;28;19924;-68
2023/01/07 01:58:05;;;;;;;;;;;;;;;-5.20;72.81;94998.63;6296560;28;19931;-68
2023/01/07 02:01:09;;;;;;;;;;;;;;;-5.26;73.11;95014.22;6297057;28;19924;-66
2023/01/07 02:04:14;;;;;;;;;;;;;;;-5.35;72.20;95014.50;6297356;28;19987;-67
2023/01/07 02:07:15;;;;;;;;;;;;;;;-5.55;72.33;95008.28;6296476;28;20306;-67
2023/01/07 02:10:22;;;;;;;;;;;;;;;-5.54;71.36;95009.97;6297094;28;19946;-68
2023/01/07 02:13:46;;;;;;;;;;;;;;;-5.70;70.35;95022.41;6296916;28;20258;-68
2023/01/07 02:17:07;;;;;;;;;;;;;;;-5.91;70.84;95031.59;6296317;28;20031;-68
2023/01/07 02:20:13;;;;;;;;;;;;;;;-6.13;70.25;95038.28;6281068;28;19924;-68
2023/01/07 02:23:33;;;;;;;;;;;;;;;-6.50;71.94;95051.28;6296369;28;19924;-68
2023/01/07 02:26:55;;;;;;;;;;;;;;;-6.57;73.28;95056.59;6296938;28;19928;-68
2023/01/07 02:30:23;;;;;;;;;;;;;;;-6.66;73.80;95061.94;6296063;28;19931;-68
2023/01/07 02:33:23;;;;;;;;;;;;;;;-6.42;74.08;95070.66;6295611;28;19924;-68
2023/01/07 02:36:45;;;;;;;;;;;;;;;-6.41;74.23;95082.56;6295530;28;19925;-68
2023/01/07 02:39:59;;;;;;;;;;;;;;;-6.50;73.31;95095.63;6295154;28;19930;-68
2023/01/07 02:43:03;;;;;;;;;;;;;;;-6.76;73.74;95088.66;6295366;28;20397;-69
2023/01/07 02:46:15;;;;;;;;;;;;;;;-7.20;73.25;95087.22;6295680;28;19932;-67
2023/01/07 02:49:18;;;;;;;;;;;;;;;-7.37;73.83;95088.44;6294776;28;20397;-67
2023/01/07 02:52:26;;;;;;;;;;;;;;;-7.69;74.41;95102.81;6294032;28;19931;-67
2023/01/07 02:55:30;;;;;;;;;;;;;;;-7.87;74.57;95108.31;6295485;28;20278;-68
2023/01/07 02:58:37;;;;;;;;;;;;;;;-8.06;74.21;95101.94;6295618;28;19924;-68
2023/01/07 03:01:44;;;;;;;;;;;;;;;-8.42;73.92;95112.03;6296122;28;20514;-68
2023/01/07 03:05:05;;;;;;;;;;;;;;;-8.60;74.03;95111.53;6296182;28;19924;-68
2023/01/07 03:08:06;;;;;;;;;;;;;;;-8.67;74.53;95125.25;6295316;28;19931;-67
2023/01/07 03:11:09;;;;;;;;;;;;;;;-8.69;72.94;95137.19;6295092;28;19924;-68
2023/01/07 03:14:17;;;;;;;;;;;;;;;-8.82;72.50;95140.81;6294865;28;20417;-68
2023/01/07 03:17:23;;;;;;;;;;;;;;;-8.69;70.18;95136.34;6294858;28;19924;-68
2023/01/07 03:20:24;;;;;;;;;;;;;;;-8.93;69.17;95142.72;6295146;28;19931;-68
2023/01/07 03:23:27;;;;;;;;;;;;;;;-9.22;69.24;95140.66;6294913;28;19924;-68
2023/01/07 03:26:38;;;;;;;;;;;;;;;-9.43;69.18;95141.81;6294643;28;19931;-67
2023/01/07 03:29:42;;;;;;;;;;;;;;;-9.17;65.77;95138.84;6295828;28;19925;-67
2023/01/07 03:32:51;;;;;;;;;;;;;;;-9.75;65.87;95146.53;6292728;28;19932;-68
2023/01/07 03:35:56;;;;;;;;;;;;;;;-9.79;64.30;95146.59;6295715;28;19924;-67
2023/01/07 03:39:03;;;;;;;;;;;;;;;-9.80;63.95;95142.34;6295744;28;20306;-67
2023/01/07 03:45:27;;;;;;;;;;;;;;;-10.25;64.71;95139.53;6294861;28;20428;-68
2023/01/07 03:48:28;;;;;;;;;;;;;;;-10.32;65.53;95158.31;6276979;28;19925;-68
2023/01/07 03:51:29;;;;;;;;;;;;;;;-10.44;65.53;95152.53;6294737;28;19943;-68
2023/01/07 03:54:31;;;;;;;;;;;;;;;-10.32;65.44;95169.34;6295256;28;20313;-68
2023/01/07 03:57:32;;;;;;;;;;;;;;;-10.51;64.39;95167.84;6294920;28;19930;-68
2023/01/07 04:00:39;;;;;;;;;;;;;;;-10.70;63.79;95169.72;6277378;28;19924;-68
2023/01/07 04:03:44;;;;;;;;;;;;;;;-10.90;64.63;95182.63;6296182;28;19924;-69
2023/01/07 04:06:45;;;;;;;;;;;;;;;-10.89;63.28;95186.88;6299378;28;20405;-68
2023/01/07 04:09:49;;;;;;;;;;;;;;;-11.00;62.20;95198.81;6299390;28;19925;-68
2023/01/07 04:12:55;;;;;;;;;;;;;;;-11.25;62.92;95208.31;6299987;28;19924;-69
2023/01/07 04:16:03;;;;;;;;;;;;;;;-11.46;62.42;95230.47;6299782;28;20390;-68
2023/01/07 04:19:07;;;;;;;;;;;;;;;-11.60;63.34;95244.94;6281155;28;20483;-68
2023/01/07 04:22:11;;;;;;;;;;;;;;;-11.95;63.75;95266.25;6299037;28;19924;-68
2023/01/07 04:25:12;;;;;;;;;;;;;;;-12.18;64.55;95266.34;6298545;28;19924;-68
2023/01/07 04:28:14;;;;;;;;;;;;;;;-12.26;65.38;95270.56;6298811;28;20313;-68
2023/01/07 04:31:20;;;;;;;;;;;;;;;-12.34;65.46;95275.69;6299461;28;19924;-68
2023/01/07 04:34:28;;;;;;;;;;;;;;;-12.34;66.38;95287.50;6299450;28;20317;-68
2023/01/07 04:37:31;;;;;;;;;;;;;;;-12.15;66.80;95293.38;6298444;28;19924;-69
2023/01/07 04:40:43;;;;;;;;;;;;;;;-12.01;66.91;95296.72;6299383;28;20341;-69
2023/01/07 04:43:47;;;;;;;;;;;;;;;-11.82;66.33;95298.31;6298394;28;19924;-67
2023/01/07 04:46:48;;;;;;;;;;;;;;;-11.58;65.49;95302.41;6298254;28;19930;-68
2023/01/07 04:49:49;;;;;;;;;;;;;;;-11.86;65.47;95316.97;6298337;28;19924;-68
2023/01/07 04:52:55;;;;;;;;;;;;;;;-11.90;65.86;95324.56;6298708;28;19986;-68
2023/01/07 04:55:57;;;;;;;;;;;;;;;-11.97;66.03;95323.75;6298144;28;20323;-68
2023/01/07 04:59:00;;;;;;;;;;;;;;;-12.12;65.88;95322.09;6298815;28;19924;-67
2023/01/07 05:02:04;;;;;;;;;;;;;;;-12.15;66.30;95323.78;6297453;28;20313;-68
2023/01/07 05:05:05;;;;;;;;;;;;;;;-12.16;65.51;95327.19;6297803;28;20413;-68
2023/01/07 05:08:08;;;;;;;;;;;;;;;-12.27;65.22;95335.63;6298577;28;20310;-68
2023/01/07 05:11:10;;;;;;;;;;;;;;;-12.40;65.30;95338.19;6297699;28;19924;-68
2023/01/07 05:14:16;;;;;;;;;;;;;;;-12.53;65.46;95339.91;6298344;28;20409;-68
2023/01/07 05:17:19;;;;;;;;;;;;;;;-12.49;64.76;95344.09;6296481;28;19928;-69
2023/01/07 05:20:22;;;;;;;;;;;;;;;-12.57;63.40;95351.69;6279438;28;20402;-68
2023/01/07 05:23:26;;;;;;;;;;;;;;;-12.62;62.10;95355.94;6297946;28;19924;-68
2023/01/07 05:26:27;;;;;;;;;;;;;;;-12.93;62.23;95367.75;6297032;28;19964;-68
2023/01/07 05:29:30;;;;;;;;;;;;;;;-13.02;62.79;95370.25;6298042;28;19931;-68
2023/01/07 05:32:31;;;;;;;;;;;;;;;-12.97;63.12;95366.03;6297339;28;20388;-68
2023/01/07 05:35:35;;;;;;;;;;;;;;;-12.90;61.90;95371.13;6298055;28;19924;-68
2023/01/07 05:38:37;;;;;;;;;;;;;;;-12.82;60.71;95361.00;6296997;28;19920;-68
2023/01/07 05:41:42;;;;;;;;;;;;;;;-12.87;60.60;95362.69;6297472;28;20295;-67
2023/01/07 05:44:48;;;;;;;;;;;;;;;-12.63;60.00;95366.06;6297658;28;19924;-68
2023/01/07 05:47:49;;;;;;;;;;;;;;;-12.60;58.96;95376.19;6296705;28;19931;-68
2023/01/07 05:50:51;;;;;;;;;;;;;;;-12.61;59.32;95390.56;6297100;28;19931;-67
2023/01/07 05:53:54;;;;;;;;;;;;;;;-12.55;60.09;95410.00;6296764;28;19924;-67
2023/01/07 05:56:55;;;;;;;;;;;;;;;-12.56;60.17;95413.38;6295550;28;20077;-67
2023/01/07 05:59:56;;;;;;;;;;;;;;;-12.54;60.71;95416.75;6296706;28;20398;-68
2023/01/07 06:03:03;;;;;;;;;;;;;;;-12.38;60.83;95426.03;6297564;28;19982;-68
2023/01/07 06:06:06;;;;;;;;;;;;;;;-12.09;60.75;95440.41;6297171;28;20011;-69
2023/01/07 06:09:07;;;;;;;;;;;;;;;-12.08;60.09;95442.97;6296246;28;19937;-68
2023/01/07 06:12:08;;;;;;;;;;;;;;;-12.05;59.83;95431.97;6297040;28;19932;-68
2023/01/07 06:15:12;;;;;;;;;;;;;;;-11.92;59.38;95437.84;6296945;28;19924;-68
2023/01/07 06:18:13;;;;;;;;;;;;;;;-11.92;57.86;95438.69;6296502;28;19924;-68
2023/01/07 06:21:15;;;;;;;;;;;;;;;-11.91;57.04;95430.25;6295497;28;20086;-69
2023/01/07 06:24:19;;;;;;;;;;;;;;;-11.92;56.05;95430.25;6295438;28;19929;-68
2023/01/07 06:27:22;;;;;;;;;;;;;;;-11.95;55.50;95428.56;6296475;28;19924;-68
2023/01/07 06:30:26;;;;;;;;;;;;;;;-11.95;56.16;95423.50;6296597;28;19924;-68
2023/01/07 06:33:29;;;;;;;;;;;;;;;-11.87;55.57;95411.66;6296494;28;20386;-68
2023/01/07 06:36:34;;;;;;;;;;;;;;;-11.90;54.58;95409.13;6296370;28;19924;-68
2023/01/07 06:39:38;;;;;;;;;;;;;;;-11.96;54.83;95404.06;6296464;28;19925;-68
2023/01/07 06:42:39;;;;;;;;;;;;;;;-11.95;54.24;95412.50;6295549;28;20011;-69
2023/01/07 06:45:40;;;;;;;;;;;;;;;-11.90;53.78;95424.34;6295162;28;19928;-68
2023/01/07 06:48:43;;;;;;;;;;;;;;;-11.92;53.98;95431.09;6296132;28;19924;-68
2023/01/07 06:51:47;;;;;;;;;;;;;;;-11.93;54.46;95444.63;6296440;28;19924;-68
2023/01/07 06:54:48;;;;;;;;;;;;;;;-11.76;55.30;95445.41;6294964;28;19931;-68
2023/01/07 06:57:51;;;;;;;;;;;;;;;-11.47;54.91;95456.34;6295821;28;19931;-68
2023/01/07 07:00:57;;;;;;;;;;;;;;;-11.37;53.96;95461.41;6295332;28;20306;-69
2023/01/07 07:03:58;;;;;;;;;;;;;;;-11.22;52.63;95460.50;6294993;28;19924;-68
2023/01/07 07:07:02;;;;;;;;;;;;;;;-11.38;52.89;95459.72;6295959;28;19931;-69
2023/01/07 07:10:22;;;;;;;;;;;;;;;-11.40;53.05;95463.97;6296028;28;19931;-68
2023/01/07 07:13:26;;;;;;;;;;;;;;;-11.27;52.42;95454.59;6294465;28;20348;-68
2023/01/07 07:16:33;;;;;;;;;;;;;;;-11.24;53.10;95459.66;6295533;28;20045;-68
2023/01/07 07:19:36;;;;;;;;;;;;;;;-11.20;52.74;95450.38;6295215;28;19935;-68
2023/01/07 07:22:46;;;;;;;;;;;;;;;-10.99;53.10;95455.34;6295492;28;19931;-68
2023/01/07 07:25:47;;;;;;;;;;;;;;;-10.10;52.89;95449.72;6294633;28;20225;-68
2023/01/07 07:28:48;;;;;;;;;;;;;;;-6.10;48.63;95445.28;6295703;28;20440;-68
2023/01/07 07:31:49;;;;;;;;;;;;;;;-1.45;42.60;95433.06;6294247;28;19928;-69
2023/01/07 07:34:53;;;;;;;;;;;;;;;1.84;38.95;95434.00;6294995;28;19924;-67
2023/01/07 07:37:57;;;;;;;;;;;;;;;4.31;36.41;95446.50;6294777;28;19994;-68
2023/01/07 07:40:59;;;;;;;;;;;;;;;5.68;35.83;95454.03;6265380;28;19928;-69
2023/01/07 07:44:03;;;;;;;;;;;;;;;6.71;35.21;95450.31;6281801;28;20255;-68
2023/01/07 07:47:04;;;;;;;;;;;;;;;7.13;34.80;95460.34;6299594;28;19924;-68
2023/01/07 07:50:05;;;;;;;;;;;;;;;7.17;31.06;95464.44;6281859;28;19929;-68
2023/01/07 07:53:08;;;;;;;;;;;;;;;7.06;32.80;95454.75;6298983;28;19947;-69
2023/01/07 07:56:10;;;;;;;;;;;;;;;7.39;34.09;95450.59;6299039;28;20385;-68
2023/01/07 07:59:13;;;;;;;;;;;;;;;8.14;33.21;95446.63;6299407;28;19925;-67
2023/01/07 08:02:19;;;;;;;;;;;;;;;9.09;29.66;95465.31;6299995;28;19924;-68
2023/01/07 08:05:25;;;;;;;;;;;;;;;8.59;31.99;95463.16;6300227;28;19924;-68
2023/01/07 08:08:31;;;;;;;;;;;;;;;8.21;32.86;95459.13;6300260;28;19924;-68
2023/01/07 08:11:35;;;;;;;;;;;;;;;8.44;31.20;95467.84;6300045;28;19924;-69
2023/01/07 08:14:36;;;;;;;;;;;;;;;8.14;28.70;95468.41;6298949;28;19925;-68
2023/01/07 08:17:37;;;;;;;;;;;;;;;7.01;33.04;95464.69;6298889;28;20424;-69
2023/01/07 08:20:42;;;;;;;;;;;;;;;5.22;31.59;95457.13;6299787;28;20019;-70
2023/01/07 08:23:44;;;;;;;;;;;;;;;4.07;35.30;95445.41;6298613;28;19925;-70
2023/01/07 08:26:46;;;;;;;;;;;;;;;3.31;34.27;95436.09;6298909;28;19934;-69
2023/01/07 08:29:49;;;;;;;;;;;;;;;3.76;30.21;95429.91;6299473;28;19970;-69
2023/01/07 08:32:50;;;;;;;;;;;;;;;2.86;28.80;95422.25;6298343;28;20389;-68
2023/01/07 08:35:51;;;;;;;;;;;;;;;2.69;30.69;95424.09;6298313;28;20401;-69
2023/01/07 08:38:55;;;;;;;;;;;;;;;2.74;27.92;95438.56;6281005;28;20408;-69
2023/01/07 08:41:58;;;;;;;;;;;;;;;2.75;28.60;95445.44;6298490;28;19920;-69
2023/01/07 08:45:02;;;;;;;;;;;;;;;3.49;31.39;95455.00;6298264;28;19931;-70
2023/01/07 08:48:05;;;;;;;;;;;;;;;4.36;26.76;95452.25;6298410;28;19928;-70
2023/01/07 08:51:08;;;;;;;;;;;;;;;4.58;27.89;95450.88;6297162;28;20333;-69
2023/01/07 08:54:11;;;;;;;;;;;;;;;4.87;28.30;95451.59;6298009;28;20401;-69
2023/01/07 08:57:15;;;;;;;;;;;;;;;4.99;25.95;95434.34;6298852;28;19924;-70
2023/01/07 09:00:18;;;;;;;;;;;;;;;5.13;26.77;95426.44;6298820;28;19921;-70
2023/01/07 09:03:22;;;;;;;;;;;;;;;4.27;27.08;95417.22;6297655;28;20457;-69
2023/01/07 09:06:23;;;;;;;;;;;;;;;2.87;28.96;95422.19;6296901;28;19931;-69
2023/01/07 09:09:26;;;;;;;;;;;;;;;2.87;27.23;95426.56;6298904;28;19924;-69
2023/01/07 09:12:29;;;;;;;;;;;;;;;2.57;28.68;95432.56;6298151;28;19924;-69
2023/01/07 09:15:35;;;;;;;;;;;;;;;1.90;27.24;95442.31;6298223;28;19925;-69
2023/01/07 09:18:36;;;;;;;;;;;;;;;1.79;28.81;95450.66;6297248;28;19924;-69
2023/01/07 09:21:40;;;;;;;;;;;;;;;1.71;28.53;95447.63;6297194;28;19931;-69
2023/01/07 09:24:41;;;;;;;;;;;;;;;1.28;29.66;95447.25;6296702;28;19931;-68
2023/01/07 09:27:48;;;;;;;;;;;;;;;0.90;30.72;95446.59;6298053;28;19924;-69
2023/01/07 09:30:51;;;;;;;;;;;;;;;0.66;29.11;95438.28;6297981;28;20402;-70
2023/01/07 09:33:56;;;;;;;;;;;;;;;0.10;29.94;95428.91;6297954;28;20442;-69
2023/01/07 09:37:00;;;;;;;;;;;;;;;-0.65;31.68;95443.47;6297028;28;19924;-68
2023/01/07 09:40:04;;;;;;;;;;;;;;;-1.72;33.65;95445.34;6297690;28;20313;-69
2023/01/07 09:43:25;;;;;;;;;;;;;;;-2.63;33.46;95463.34;6297895;28;19928;-68
2023/01/07 09:46:26;;;;;;;;;;;;;;;-3.47;33.06;95457.63;6296834;28;20310;-67
2023/01/07 09:49:31;;;;;;;;;;;;;;;-4.15;35.10;95464.03;6296530;28;19956;-68
2023/01/07 09:52:35;;;;;;;;;;;;;;;-4.49;36.97;95453.09;6296927;28;19925;-68
2023/01/07 09:55:40;;;;;;;;;;;;;;;-4.76;35.74;95442.69;6296080;28;19924;-68
2023/01/07 09:58:45;;;;;;;;;;;;;;;-5.33;35.96;95438.25;6297120;28;19924;-67
2023/01/07 10:01:54;;;;;;;;;;;;;;;-5.94;37.01;95431.25;6296825;28;19925;-68
2023/01/07 10:05:25;;;;;;;;;;;;;;;-6.55;35.39;95448.81;6297214;28;19924;-67
2023/01/07 10:08:26;;;;;;;;;;;;;;;-7.10;37.74;95451.66;6295558;28;20019;-67
2023/01/07 10:11:36;;;;;;;;;;;;;;;-7.34;36.81;95456.31;6295939;28;19986;-68
2023/01/07 10:14:38;;;;;;;;;;;;;;;-7.76;37.73;95463.84;6278413;28;19928;-68
2023/01/07 10:17:47;;;;;;;;;;;;;;;-7.78;38.14;95465.59;6297007;28;19924;-69
2023/01/07 10:20:49;;;;;;;;;;;;;;;-7.68;37.84;95462.00;6295841;28;19924;-69
2023/01/07 10:24:01;;;;;;;;;;;;;;;-7.83;37.76;95467.38;6295656;28;20058;-68
2023/01/07 10:27:06;;;;;;;;;;;;;;;-8.22;37.50;95479.03;6295529;28;20058;-68
2023/01/07 10:30:14;;;;;;;;;;;;;;;-8.49;38.74;95470.06;6296149;28;19924;-68
2023/01/07 10:33:18;;;;;;;;;;;;;;;-8.82;39.21;95472.22;6295804;28;20313;-68
2023/01/07 10:36:25;;;;;;;;;;;;;;;-9.06;38.92;95474.19;6296341;28;20409;-68
2023/01/07 10:39:41;;;;;;;;;;;;;;;-9.16;39.07;95464.94;6296301;28;20094;-67
2023/01/07 10:42:42;;;;;;;;;;;;;;;-9.44;39.25;95472.03;6295499;28;19924;-68
2023/01/07 10:45:50;;;;;;;;;;;;;;;-9.70;39.33;95474.81;6295821;28;20425;-68
2023/01/07 10:49:11;;;;;;;;;;;;;;;-10.02;39.55;95473.41;6294915;28;19924;-68
2023/01/07 10:52:32;;;;;;;;;;;;;;;-10.29;40.62;95463.44;6244782;28;20294;-67
2023/01/07 10:55:42;;;;;;;;;;;;;;;-10.37;40.47;95465.19;6301497;28;19931;-68
2023/01/07 10:58:45;;;;;;;;;;;;;;;-10.54;40.25;95470.38;6321124;28;19954;-68
2023/01/07 11:01:53;;;;;;;;;;;;;;;-10.79;40.62;95478.13;6320545;28;19920;-67
2023/01/07 11:04:58;;;;;;;;;;;;;;;-10.88;40.60;95476.47;6321030;28;20026;-68
2023/01/07 11:08:06;;;;;;;;;;;;;;;-11.06;40.62;95478.25;6320727;28;20401;-68
2023/01/07 11:11:13;;;;;;;;;;;;;;;-11.20;40.69;95470.69;6320435;28;19928;-67
2023/01/07 11:14:28;;;;;;;;;;;;;;;-11.32;41.29;95487.63;6319770;28;19924;-68
2023/01/07 11:17:37;;;;;;;;;;;;;;;-11.37;41.50;95479.19;6320732;28;19924;-68
2023/01/07 11:20:47;;;;;;;;;;;;;;;-11.33;41.26;95470.69;6320811;28;20317;-68
2023/01/07 11:23:48;;;;;;;;;;;;;;;-11.53;41.72;95468.22;6320452;28;20336;-69
2023/01/07 11:26:49;;;;;;;;;;;;;;;-11.71;42.10;95467.41;6319551;28;19931;-69
2023/01/07 11:29:57;;;;;;;;;;;;;;;-11.74;41.86;95468.25;6320669;28;20416;-68
2023/01/07 11:32:59;;;;;;;;;;;;;;;-12.01;42.58;95456.47;6320542;28;19947;-68
2023/01/07 11:36:00;;;;;;;;;;;;;;;-12.03;42.28;95460.69;6320152;28;20350;-68
2023/01/07 11:39:09;;;;;;;;;;;;;;;-12.22;43.14;95465.78;6320064;28;19993;-68
2023/01/07 11:45:47;;;;;;;;;;;;;;;-12.53;43.60;95464.06;6320235;28;19928;-68
2023/01/07 11:48:52;;;;;;;;;;;;;;;-12.60;43.74;95459.81;6320376;28;19924;-68
2023/01/07 11:51:56;;;;;;;;;;;;;;;-12.64;43.86;95455.59;6320142;28;19928;-68
2023/01/07 11:54:57;;;;;;;;;;;;;;;-12.69;44.25;95456.41;6301758;28;20020;-68
2023/01/07 11:58:01;;;;;;;;;;;;;;;-12.75;44.64;95453.88;6294846;28;19932;-68
2023/01/07 12:01:07;;;;;;;;;;;;;;;-12.80;44.75;95455.53;6294913;28;20390;-69
2023/01/07 12:04:12;;;;;;;;;;;;;;;-12.82;44.60;95451.31;6294419;28;19931;-68
2023/01/07 12:07:16;;;;;;;;;;;;;;;-12.94;44.86;95457.19;6295011;28;19950;-68
2023/01/07 12:10:26;;;;;;;;;;;;;;;-13.00;44.93;95452.13;6294958;28;19923;-68
2023/01/07 12:13:27;;;;;;;;;;;;;;;-13.19;45.61;95452.06;6295073;28;19924;-69
2023/01/07 12:16:31;;;;;;;;;;;;;;;-13.30;45.24;95458.81;6294729;28;19917;-68
2023/01/07 12:19:50;;;;;;;;;;;;;;;-13.47;45.94;95470.50;6294810;28;19924;-67
2023/01/07 12:23:01;;;;;;;;;;;;;;;-13.55;45.91;95464.59;6293877;28;20026;-67
2023/01/07 12:26:17;;;;;;;;;;;;;;;-13.69;46.13;95460.28;6296356;28;19943;-68
2023/01/07 12:29:20;;;;;;;;;;;;;;;-13.77;46.37;95466.97;6299147;28;19924;-69
2023/01/07 12:32:28;;;;;;;;;;;;;;;-13.78;46.76;95465.28;6299340;28;19924;-69
2023/01/07 12:35:41;;;;;;;;;;;;;;;-13.80;46.93;95451.78;6299399;28;20819;-68
2023/01/07 12:38:54;;;;;;;;;;;;;;;-13.89;46.89;95461.84;6298241;28;19924;-67
2023/01/07 12:42:03;;;;;;;;;;;;;;;-13.94;47.08;95473.59;6299206;28;19924;-68
2023/01/07 12:45:05;;;;;;;;;;;;;;;-13.96;47.43;95468.53;6298685;28;19947;-68
2023/01/07 12:48:12;;;;;;;;;;;;;;;-13.97;47.37;95458.41;6298828;28;20337;-68
2023/01/07 12:51:21;;;;;;;;;;;;;;;-13.96;47.04;95457.56;6298231;28;19924;-68
2023/01/07 12:54:38;;;;;;;;;;;;;;;-13.92;47.55;95454.25;6299261;28;19924;-67
2023/01/07 12:57:41;;;;;;;;;;;;;;;-13.90;47.65;95466.03;6323669;28;19928;-67
2023/01/07 13:00:46;;;;;;;;;;;;;;;-13.85;47.48;95466.06;6323487;28;19923;-68
2023/01/07 13:03:59;;;;;;;;;;;;;;;-13.84;47.57;95475.34;6323699;28;19949;-67
2023/01/07 13:07:10;;;;;;;;;;;;;;;-13.85;47.63;95468.59;6323807;28;19931;-69
2023/01/07 13:10:18;;;;;;;;;;;;;;;-13.82;47.70;95468.63;6323598;28;19924;-69
2023/01/07 13:13:22;;;;;;;;;;;;;;;-13.85;47.94;95478.72;6323222;28;19935;-68
2023/01/07 13:16:23;;;;;;;;;;;;;;;-13.87;48.21;95485.44;6322693;28;20005;-68
2023/01/07 13:19:24;;;;;;;;;;;;;;;-13.98;47.70;95482.84;6323228;28;19924;-68
2023/01/07 13:22:30;;;;;;;;;;;;;;;-13.99;48.32;95487.88;6323084;28;19924;-67
2023/01/07 13:26:09;;;;;;;;;;;;;;;-13.97;48.28;95489.59;6322931;28;19923;-68
2023/01/07 13:29:22;;;;;;;;;;;;;;;-13.93;47.95;95473.59;6247193;28;19925;-68
2023/01/07 13:32:33;;;;;;;;;;;;;;;-13.90;48.42;95480.38;6323084;28;19928;-68
2023/01/07 13:35:52;;;;;;;;;;;;;;;-13.96;48.36;95490.44;6322966;28;19924;-68
2023/01/07 13:39:14;;;;;;;;;;;;;;;-14.02;48.56;95487.03;6321006;28;19923;-68
2023/01/07 13:42:36;;;;;;;;;;;;;;;-14.04;48.47;95481.13;6323090;28;20013;-67
2023/01/07 13:45:40;;;;;;;;;;;;;;;-14.10;48.73;95478.53;6322516;28;19924;-68
2023/01/07 13:48:46;;;;;;;;;;;;;;;-14.15;48.77;95477.66;6322627;28;19924;-68
2023/01/07 13:51:47;;;;;;;;;;;;;;;-14.19;48.67;95475.94;6322052;28;20514;-68
2023/01/07 13:54:51;;;;;;;;;;;;;;;-14.22;48.86;95486.03;6305344;28;19925;-68
2023/01/07 13:57:55;;;;;;;;;;;;;;;-14.29;49.26;95469.13;6297593;28;20424;-68
2023/01/07 14:01:14;;;;;;;;;;;;;;;-14.29;49.37;95461.56;6297684;28;20030;-68
2023/01/07 14:04:32;;;;;;;;;;;;;;;-14.32;49.63;95486.78;6295735;28;20321;-68
2023/01/07 14:07:47;;;;;;;;;;;;;;;-14.42;49.53;95485.84;6296801;28;19929;-68
2023/01/07 14:10:52;;;;;;;;;;;;;;;-14.50;49.41;95490.81;6296022;28;19947;-68
2023/01/07 14:13:59;;;;;;;;;;;;;;;-14.53;49.98;95483.25;6296694;28;20027;-68
2023/01/07 14:17:06;;;;;;;;;;;;;;;-14.55;49.72;95476.50;6278820;28;20389;-67
2023/01/07 14:20:31;;;;;;;;;;;;;;;-14.56;50.20;95488.28;6278383;28;19924;-68
2023/01/07 14:23:32;;;;;;;;;;;;;;;-14.56;49.92;95503.44;6295335;28;19924;-69
2023/01/07 14:26:40;;;;;;;;;;;;;;;-14.55;49.79;95495.06;6296693;28;19924;-68
2023/01/07 14:29:46;;;;;;;;;;;;;;;-14.55;50.28;95495.06;6296286;28;20348;-69
2023/01/07 14:32:58;;;;;;;;;;;;;;;-14.49;49.96;95502.66;6296146;28;19924;-70
2023/01/07 14:36:06;;;;;;;;;;;;;;;-14.44;49.93;95491.72;6295660;28;19931;-68
2023/01/07 14:39:28;;;;;;;;;;;;;;;-14.37;50.07;95479.16;6296013;28;20028;-68
2023/01/07 14:42:42;;;;;;;;;;;;;;;-14.31;49.94;95470.81;6295234;28;19929;-68
2023/01/07 14:46:00;;;;;;;;;;;;;;;-14.39;50.09;95464.84;6295137;28;20302;-68
2023/01/07 14:49:04;;;;;;;;;;;;;;;-14.40;50.06;95473.25;6294903;28;19925;-68
2023/01/07 14:52:26;;;;;;;;;;;;;;;-14.33;50.14;95469.94;6278160;28;20325;-68
2023/01/07 14:55:42;;;;;;;;;;;;;;;-14.27;49.91;95480.06;6294603;28;19932;-68
2023/01/07 14:58:45;;;;;;;;;;;;;;;-14.23;50.16;95486.88;6295397;28;20336;-67
2023/01/07 15:02:09;;;;;;;;;;;;;;;-14.16;49.97;95488.59;6295690;28;19927;-68
2023/01/07 15:05:16;;;;;;;;;;;;;;;-14.09;49.90;95502.16;6295697;28;19924;-68
2023/01/07 15:18:43;;;;;;;;;;;;;;;-14.21;50.41;95505.41;6295663;28;19925;-68
2023/01/07 15:21:50;;;;;;;;;;;;;;;-14.19;50.46;95493.63;6295506;28;19924;-68
2023/01/07 15:25:12;;;;;;;;;;;;;;;-14.27;50.27;95507.88;6295312;28;20055;-68
2023/01/07 15:28:34;;;;;;;;;;;;;;;-14.35;50.52;95522.13;6295154;28;19925;-69
2023/01/07 15:31:44;;;;;;;;;;;;;;;-14.28;50.75;95511.25;6295269;28;19929;-68
2023/01/07 15:34:45;;;;;;;;;;;;;;;-14.32;50.62;95512.91;6295539;28;19924;-68
2023/01/07 15:37:51;;;;;;;;;;;;;;;-14.31;50.37;95516.28;6295343;28;19928;-68
2023/01/07 15:40:53;;;;;;;;;;;;;;;-14.25;50.00;95518.84;6294980;28;19925;-69
2023/01/07 15:43:54;;;;;;;;;;;;;;;-14.35;50.78;95497.72;6295433;28;19931;-68
2023/01/07 15:47:03;;;;;;;;;;;;;;;-14.30;50.05;95515.44;6295289;28;19924;-68
2023/01/07 15:50:28;;;;;;;;;;;;;;;-14.37;50.35;95519.59;6295121;28;20000;-71
2023/01/07 15:53:32;;;;;;;;;;;;;;;-14.34;50.58;95508.66;6292674;28;19924;-67
2023/01/07 15:56:35;;;;;;;;;;;;;;;-14.27;50.74;95505.34;6294748;28;19932;-68
2023/01/07 15:59:44;;;;;;;;;;;;;;;-14.22;50.49;95518.88;6295908;28;20066;-68
2023/01/07 16:02:48;;;;;;;;;;;;;;;-14.18;49.99;95505.44;6300205;28;19924;-68
2023/01/07 16:05:52;;;;;;;;;;;;;;;-14.37;50.33;95513.69;6299991;28;19924;-68
2023/01/07 16:08:56;;;;;;;;;;;;;;;-14.36;50.25;95520.44;6299988;28;19924;-68
2023/01/07 16:11:59;;;;;;;;;;;;;;;-14.41;49.74;95522.91;6298846;28;19924;-68
2023/01/07 16:15:31;;;;;;;;;;;;;;;-14.51;49.67;95516.94;6299883;28;19924;-69
2023/01/07 16:18:35;;;;;;;;;;;;;;;-14.60;49.52;95516.88;6279640;28;19925;-67
2023/01/07 16:21:38;;;;;;;;;;;;;;;-14.78;50.18;95527.59;6299651;28;20481;-69